Time;durP1;ratioP1;P1;durP2;ratioP2;P2;SDS_P1;SDS_P2;PMS_P1;PMS_P2;Temp;Humidity;BMP_temperature;BMP_pressure;BME280_temperature;BME280_humidity;BME280_pressure;Samples;Min_cycle;Max_cycle;Signal;HPM_P1;HPM_P2
2021/05/08 00:01:18;;;;;;;6.87;6.10;;;8.60;63.00;;;;;;5074933;28;20490;-65
2021/05/08 00:03:44;;;;;;;6.77;6.17;;;8.60;63.10;;;;;;5074934;28;20440;-67
2021/05/08 00:06:12;;;;;;;6.10;5.60;;;8.60;63.30;;;;;;5074974;28;20441;-65
2021/05/08 00:08:39;;;;;;;6.33;5.73;;;8.50;63.30;;;;;;5075132;28;20452;-65
2021/05/08 00:11:05;;;;;;;7.50;5.70;;;8.50;63.40;;;;;;5075186;28;20460;-65
2021/05/08 00:13:32;;;;;;;7.27;6.37;;;8.50;63.60;;;;;;5075448;28;20451;-65
2021/05/08 00:15:59;;;;;;;11.80;5.83;;;8.50;63.50;;;;;;5074898;28;20853;-65
2021/05/08 00:18:26;;;;;;;7.13;5.57;;;8.40;63.50;;;;;;5074881;28;20452;-65
2021/05/08 00:20:52;;;;;;;6.40;5.40;;;8.40;63.50;;;;;;5074278;28;20898;-65
2021/05/08 00:23:18;;;;;;;6.13;5.63;;;8.40;63.80;;;;;;5074573;28;20445;-65
2021/05/08 00:25:45;;;;;;;11.50;6.03;;;8.30;63.80;;;;;;5074464;28;20437;-65
2021/05/08 00:28:11;;;;;;;6.13;5.63;;;8.30;63.70;;;;;;5074363;28;20449;-65
2021/05/08 00:30:37;;;;;;;5.67;5.17;;;8.20;63.90;;;;;;5074408;28;20871;-65
2021/05/08 00:33:05;;;;;;;8.43;6.00;;;8.20;64.10;;;;;;5074383;28;20444;-65
2021/05/08 00:35:31;;;;;;;6.17;5.67;;;8.20;64.30;;;;;;5074400;28;20433;-65
2021/05/08 00:37:57;;;;;;;9.90;5.77;;;8.10;64.40;;;;;;5074256;28;20446;-65
2021/05/08 00:40:24;;;;;;;6.27;5.63;;;8.10;64.60;;;;;;5073743;28;21013;-65
2021/05/08 00:42:50;;;;;;;6.93;6.27;;;8.10;64.60;;;;;;5074187;28;20536;-65
2021/05/08 00:45:16;;;;;;;6.23;5.47;;;8.10;64.80;;;;;;5073843;28;20471;-65
2021/05/08 00:47:47;;;;;;;5.70;5.20;;;8.10;64.90;;;;;;5074067;28;20449;-65
2021/05/08 00:50:17;;;;;;;5.93;5.43;;;8.10;64.60;;;;;;5073988;28;20464;-65
2021/05/08 00:52:43;;;;;;;5.50;4.70;;;8.00;64.60;;;;;;5073823;28;20942;-65
2021/05/08 00:55:10;;;;;;;7.00;6.10;;;8.00;64.80;;;;;;5073950;28;20617;-65
2021/05/08 00:57:37;;;;;;;5.97;5.30;;;8.00;64.80;;;;;;5073923;28;20445;-65
2021/05/08 01:00:04;;;;;;;6.77;6.07;;;7.90;65.00;;;;;;5073802;28;20788;-65
2021/05/08 01:02:30;;;;;;;6.93;5.87;;;7.90;65.40;;;;;;5073845;28;20473;-65
2021/05/08 01:04:57;;;;;;;5.80;5.30;;;7.90;65.60;;;;;;5074018;28;20449;-65
2021/05/08 01:07:24;;;;;;;8.93;4.77;;;7.90;65.70;;;;;;5073778;28;20449;-65
2021/05/08 01:09:51;;;;;;;8.03;5.90;;;7.80;66.30;;;;;;5073711;28;20502;-65
2021/05/08 01:12:18;;;;;;;6.43;5.87;;;7.80;65.70;;;;;;5073693;28;20471;-65
2021/05/08 01:14:45;;;;;;;6.20;5.60;;;7.70;65.80;;;;;;5073622;28;20535;-65
2021/05/08 01:17:11;;;;;;;5.63;5.13;;;7.80;66.10;;;;;;5073269;28;20969;-65
2021/05/08 01:19:37;;;;;;;6.93;6.23;;;7.70;65.90;;;;;;5073516;28;20452;-65
2021/05/08 01:22:04;;;;;;;6.80;6.20;;;7.70;65.90;;;;;;5073628;28;20543;-65
2021/05/08 01:24:31;;;;;;;6.20;5.60;;;7.70;65.90;;;;;;5073236;28;20454;-65
2021/05/08 01:26:57;;;;;;;7.50;5.50;;;7.70;66.00;;;;;;5073616;28;20445;-65
2021/05/08 01:29:23;;;;;;;11.87;6.73;;;7.70;66.00;;;;;;5073471;28;20444;-65
2021/05/08 01:31:50;;;;;;;7.87;6.73;;;7.70;66.00;;;;;;5073383;28;20457;-65
2021/05/08 01:34:16;;;;;;;6.73;6.03;;;7.70;66.10;;;;;;5073468;28;20501;-65
2021/05/08 01:36:42;;;;;;;7.17;6.57;;;7.70;66.20;;;;;;5073448;28;20484;-65
2021/05/08 01:39:10;;;;;;;10.00;6.33;;;7.60;66.40;;;;;;5073886;28;20498;-65
2021/05/08 01:41:36;;;;;;;7.77;7.10;;;7.70;66.80;;;;;;5072884;28;20484;-65
2021/05/08 01:44:04;;;;;;;9.07;8.17;;;7.70;67.10;;;;;;5073383;28;20447;-65
2021/05/08 01:46:30;;;;;;;8.33;7.53;;;7.70;67.10;;;;;;5073371;28;20480;-65
2021/05/08 01:48:57;;;;;;;11.40;7.70;;;7.70;67.20;;;;;;5073411;28;20452;-65
2021/05/08 01:51:23;;;;;;;7.87;7.07;;;7.60;67.20;;;;;;5072842;28;20533;-65
2021/05/08 01:53:49;;;;;;;11.13;8.03;;;7.60;67.50;;;;;;5073226;28;20452;-65
2021/05/08 01:56:16;;;;;;;9.47;7.03;;;7.60;67.80;;;;;;5073190;28;20444;-65
2021/05/08 01:58:42;;;;;;;8.13;7.23;;;7.60;67.70;;;;;;5073297;28;20429;-65
2021/05/08 02:01:09;;;;;;;9.37;8.43;;;7.60;67.80;;;;;;5072993;28;20488;-65
2021/05/08 02:03:35;;;;;;;9.23;8.33;;;7.60;68.10;;;;;;5073177;28;20448;-65
2021/05/08 02:06:02;;;;;;;10.43;8.63;;;7.60;68.60;;;;;;5073238;28;20433;-65
2021/05/08 02:08:29;;;;;;;11.07;9.90;;;7.60;68.70;;;;;;5073106;28;20444;-65
2021/05/08 02:10:55;;;;;;;10.40;9.20;;;7.60;68.80;;;;;;5073682;28;20461;-65
2021/05/08 02:13:22;;;;;;;12.40;10.10;;;7.60;68.90;;;;;;5074346;28;20445;-65
2021/05/08 02:15:48;;;;;;;11.30;9.70;;;7.60;69.00;;;;;;5073815;28;20452;-65
2021/05/08 02:18:16;;;;;;;12.37;11.17;;;7.60;68.90;;;;;;5073035;28;20440;-65
2021/05/08 02:20:45;;;;;;;11.40;10.30;;;7.60;68.80;;;;;;5072958;28;20491;-65
2021/05/08 02:23:13;;;;;;;12.40;10.67;;;7.60;68.90;;;;;;5073006;28;20513;-65
2021/05/08 02:25:40;;;;;;;11.50;9.73;;;7.60;68.90;;;;;;5072993;28;20498;-65
2021/05/08 02:28:06;;;;;;;11.20;10.00;;;7.60;69.10;;;;;;5072920;28;20456;-65
2021/05/08 02:30:35;;;;;;;11.27;10.07;;;7.60;69.20;;;;;;5072571;28;20464;-65
2021/05/08 02:33:02;;;;;;;12.07;10.83;;;7.60;69.20;;;;;;5072920;28;20436;-65
2021/05/08 02:35:30;;;;;;;12.30;10.47;;;7.60;69.30;;;;;;5074282;28;20432;-65
2021/05/08 02:37:57;;;;;;;12.63;10.80;;;7.50;69.30;;;;;;5076532;28;20445;-65
2021/05/08 02:40:26;;;;;;;13.07;9.53;;;7.60;69.40;;;;;;5076335;28;20476;-65
2021/05/08 02:42:53;;;;;;;11.80;10.63;;;7.50;69.50;;;;;;5076374;28;20441;-65
2021/05/08 02:45:19;;;;;;;10.83;9.73;;;7.60;69.80;;;;;;5076407;28;20868;-64
2021/05/08 02:47:48;;;;;;;11.43;9.97;;;7.60;70.10;;;;;;5076270;28;20448;-64
2021/05/08 02:50:16;;;;;;;11.20;10.10;;;7.60;70.20;;;;;;5075979;28;20509;-65
2021/05/08 02:52:43;;;;;;;10.90;9.80;;;7.60;70.50;;;;;;5076860;28;20467;-65
2021/05/08 02:55:11;;;;;;;11.97;10.30;;;7.60;70.80;;;;;;5076173;28;20528;-65
2021/05/08 02:57:38;;;;;;;12.07;10.73;;;7.60;71.00;;;;;;5075934;28;20447;-65
2021/05/08 03:00:06;;;;;;;13.37;10.27;;;7.60;71.30;;;;;;5076010;28;20517;-65
2021/05/08 03:02:33;;;;;;;12.33;10.50;;;7.60;71.40;;;;;;5076033;28;20515;-65
2021/05/08 03:05:00;;;;;;;13.80;10.80;;;7.50;71.40;;;;;;5075946;28;20448;-65
2021/05/08 03:07:26;;;;;;;11.90;10.20;;;7.50;71.90;;;;;;5075741;28;20943;-65
2021/05/08 03:09:52;;;;;;;12.77;10.53;;;7.60;72.00;;;;;;5075645;28;20448;-65
2021/05/08 03:12:19;;;;;;;11.47;10.37;;;7.50;71.90;;;;;;5075908;28;20469;-65
2021/05/08 03:14:45;;;;;;;12.03;10.70;;;7.50;72.00;;;;;;5075810;28;20943;-65
2021/05/08 03:17:11;;;;;;;13.03;11.70;;;7.50;72.00;;;;;;5075426;28;20494;-65
2021/05/08 03:19:37;;;;;;;10.73;9.83;;;7.50;72.00;;;;;;5075441;28;20451;-65
2021/05/08 03:22:05;;;;;;;17.50;10.30;;;7.50;72.10;;;;;;5075526;28;20503;-65
2021/05/08 03:24:32;;;;;;;9.87;8.97;;;7.50;72.10;;;;;;5075669;28;20440;-65
2021/05/08 03:26:58;;;;;;;10.67;9.57;;;7.50;72.00;;;;;;5075564;28;20441;-65
2021/05/08 03:29:24;;;;;;;10.63;9.63;;;7.50;72.00;;;;;;5075325;28;20445;-65
2021/05/08 03:31:50;;;;;;;13.40;11.00;;;7.40;72.00;;;;;;5075468;28;20460;-65
2021/05/08 03:34:17;;;;;;;11.40;9.67;;;7.40;72.00;;;;;;5075542;28;20449;-65
2021/05/08 03:36:43;;;;;;;13.80;10.60;;;7.40;72.10;;;;;;5075368;28;20862;-65
2021/05/08 03:39:10;;;;;;;12.40;8.77;;;7.40;72.00;;;;;;5075067;28;20448;-65
2021/05/08 03:41:36;;;;;;;12.10;10.10;;;7.40;71.50;;;;;;5075254;28;20480;-65
2021/05/08 03:44:03;;;;;;;13.00;10.40;;;7.40;71.40;;;;;;5075414;28;20443;-65
2021/05/08 03:46:29;;;;;;;10.83;9.57;;;7.40;71.20;;;;;;5075063;28;20452;-65
2021/05/08 03:48:55;;;;;;;9.57;8.50;;;7.30;71.00;;;;;;5075127;28;20452;-65
2021/05/08 03:51:23;;;;;;;9.90;8.43;;;7.30;71.20;;;;;;5075554;28;20476;-65
2021/05/08 03:53:49;;;;;;;10.83;8.70;;;7.20;71.50;;;;;;5075092;28;20448;-65
2021/05/08 03:56:16;;;;;;;10.00;8.97;;;7.20;72.00;;;;;;5075043;28;20440;-65
2021/05/08 03:58:42;;;;;;;10.03;9.07;;;7.20;72.20;;;;;;5074977;28;20456;-65
2021/05/08 04:01:09;;;;;;;10.70;9.60;;;7.20;72.30;;;;;;5074782;28;20488;-65
2021/05/08 04:03:35;;;;;;;10.23;8.73;;;7.20;72.30;;;;;;5074833;28;20452;-65
2021/05/08 04:06:01;;;;;;;14.07;9.27;;;7.30;72.30;;;;;;5074380;28;20445;-65
2021/05/08 04:08:27;;;;;;;11.63;10.17;;;7.30;72.20;;;;;;5075057;28;20436;-65
2021/05/08 04:10:54;;;;;;;11.37;9.23;;;7.30;72.20;;;;;;5074613;28;20464;-65
2021/05/08 04:13:21;;;;;;;14.90;9.53;;;7.30;72.10;;;;;;5074358;28;20440;-65
2021/05/08 04:15:47;;;;;;;13.60;9.67;;;7.30;72.20;;;;;;5074576;28;20441;-65
2021/05/08 04:18:13;;;;;;;13.37;9.40;;;7.30;72.10;;;;;;5074220;28;20943;-65
2021/05/08 04:20:40;;;;;;;9.60;8.60;;;7.30;72.20;;;;;;5074361;28;20481;-65
2021/05/08 04:23:07;;;;;;;11.63;10.10;;;7.30;72.20;;;;;;5074454;28;20445;-64
2021/05/08 04:25:33;;;;;;;10.83;8.40;;;7.30;72.40;;;;;;5074423;28;20443;-64
2021/05/08 04:27:59;;;;;;;14.43;10.23;;;7.40;72.60;;;;;;5074376;28;20452;-65
2021/05/08 04:30:26;;;;;;;10.10;9.10;;;7.30;72.70;;;;;;5074225;28;20457;-65
2021/05/08 04:32:52;;;;;;;11.90;10.17;;;7.20;72.80;;;;;;5074269;28;20854;-65
2021/05/08 04:35:19;;;;;;;12.00;10.10;;;7.20;73.30;;;;;;5074150;28;20441;-65
2021/05/08 04:37:45;;;;;;;12.03;10.47;;;7.20;73.60;;;;;;5074062;28;20814;-65
2021/05/08 04:40:12;;;;;;;11.60;10.10;;;7.10;74.00;;;;;;5073843;28;20449;-65
2021/05/08 04:42:38;;;;;;;13.47;10.30;;;7.10;74.40;;;;;;5073960;28;20448;-64
2021/05/08 04:45:07;;;;;;;11.47;9.47;;;7.20;74.50;;;;;;5073941;28;20514;-64
2021/05/08 04:47:34;;;;;;;11.50;10.40;;;7.30;74.30;;;;;;5073909;28;20514;-64
2021/05/08 04:50:03;;;;;;;12.03;10.23;;;7.30;74.30;;;;;;5073690;28;20461;-64
2021/05/08 04:52:29;;;;;;;17.53;11.50;;;7.20;74.20;;;;;;5073782;28;20547;-64
2021/05/08 04:54:56;;;;;;;12.50;10.70;;;7.30;74.60;;;;;;5073796;28;20459;-65
2021/05/08 04:57:22;;;;;;;15.00;10.93;;;7.40;74.30;;;;;;5073002;28;20448;-65
2021/05/08 04:59:48;;;;;;;12.80;11.17;;;7.50;74.30;;;;;;5073483;28;20448;-65
2021/05/08 05:02:14;;;;;;;12.77;10.37;;;7.60;74.60;;;;;;5073546;28;20488;-65
2021/05/08 05:04:41;;;;;;;13.10;10.77;;;7.70;74.20;;;;;;5073360;28;20837;-64
2021/05/08 05:07:07;;;;;;;13.80;12.47;;;7.70;73.90;;;;;;5073254;28;20958;-65
2021/05/08 05:09:34;;;;;;;11.10;9.60;;;7.90;74.00;;;;;;5073604;28;20440;-65
2021/05/08 05:12:00;;;;;;;14.43;10.60;;;7.90;73.60;;;;;;5073521;28;20476;-65
2021/05/08 05:14:27;;;;;;;14.47;11.40;;;8.00;73.80;;;;;;5073562;28;20494;-65
2021/05/08 05:16:53;;;;;;;11.93;10.70;;;8.10;73.60;;;;;;5073569;28;20441;-65
2021/05/08 05:19:20;;;;;;;12.47;10.77;;;8.20;73.30;;;;;;5073454;28;20452;-65
2021/05/08 05:21:47;;;;;;;14.57;12.70;;;8.30;72.80;;;;;;5073483;28;20476;-65
2021/05/08 05:24:13;;;;;;;14.40;11.33;;;8.40;72.40;;;;;;5073608;28;20452;-66
2021/05/08 05:26:39;;;;;;;13.47;10.83;;;8.50;72.20;;;;;;5073366;28;20452;-65
2021/05/08 05:29:09;;;;;;;12.23;9.33;;;8.60;71.90;;;;;;5073401;28;20436;-65
2021/05/08 05:31:35;;;;;;;11.07;9.03;;;8.70;71.70;;;;;;5073307;28;20464;-65
2021/05/08 05:34:01;;;;;;;13.93;11.83;;;8.80;71.60;;;;;;5073277;28;20454;-65
2021/05/08 05:36:28;;;;;;;13.23;11.00;;;8.90;72.30;;;;;;5073262;28;20448;-65
2021/05/08 05:38:55;;;;;;;13.03;11.57;;;9.00;72.70;;;;;;5072910;28;20444;-65
2021/05/08 05:41:21;;;;;;;10.97;9.90;;;9.10;73.00;;;;;;5073088;28;20851;-65
2021/05/08 05:43:47;;;;;;;13.10;11.77;;;9.20;72.70;;;;;;5073143;28;20506;-65
2021/05/08 05:46:13;;;;;;;11.67;10.47;;;9.30;72.40;;;;;;5073086;28;20509;-66
2021/05/08 05:48:40;;;;;;;12.17;10.40;;;9.40;72.40;;;;;;5072952;28;20460;-65
2021/05/08 05:51:07;;;;;;;12.03;10.77;;;9.60;72.40;;;;;;5073030;28;20475;-65
2021/05/08 05:53:34;;;;;;;10.90;9.80;;;9.70;72.20;;;;;;5073000;28;20539;-65
2021/05/08 05:56:01;;;;;;;10.37;8.50;;;9.80;71.90;;;;;;5073193;28;20443;-65
2021/05/08 05:58:27;;;;;;;11.23;10.00;;;9.90;71.60;;;;;;5072787;28;20449;-65
2021/05/08 06:00:53;;;;;;;11.80;9.00;;;9.90;70.50;;;;;;5072926;28;20485;-65
2021/05/08 06:03:20;;;;;;;11.17;9.60;;;10.00;69.10;;;;;;5073058;28;20444;-66
2021/05/08 06:05:46;;;;;;;11.03;10.00;;;10.10;68.30;;;;;;5072757;28;20459;-66
2021/05/08 06:08:13;;;;;;;13.10;10.23;;;10.20;68.00;;;;;;5072722;28;20464;-66
2021/05/08 06:10:39;;;;;;;11.67;9.73;;;10.20;67.90;;;;;;5076576;28;20464;-66
2021/05/08 06:13:06;;;;;;;10.60;9.50;;;10.30;67.50;;;;;;5076661;28;20942;-66
2021/05/08 06:15:32;;;;;;;10.13;9.27;;;10.40;67.10;;;;;;5076576;28;20437;-66
2021/05/08 06:17:59;;;;;;;11.63;8.60;;;10.60;67.60;;;;;;5076610;28;20490;-66
2021/05/08 06:20:25;;;;;;;11.40;10.13;;;10.70;66.30;;;;;;5076666;28;20573;-67
2021/05/08 06:22:51;;;;;;;11.87;9.77;;;10.90;65.80;;;;;;5076857;28;20818;-66
2021/05/08 06:25:17;;;;;;;11.20;9.20;;;11.10;65.30;;;;;;5076703;28;20441;-66
2021/05/08 06:27:44;;;;;;;10.27;8.30;;;11.20;64.90;;;;;;5076295;28;20946;-67
2021/05/08 06:30:12;;;;;;;12.13;9.40;;;11.30;64.10;;;;;;5076248;28;20448;-66
2021/05/08 06:32:38;;;;;;;13.90;8.87;;;11.50;63.30;;;;;;5076521;28;20444;-66
2021/05/08 06:35:05;;;;;;;11.93;8.50;;;11.60;62.70;;;;;;5076537;28;20459;-66
2021/05/08 06:37:32;;;;;;;9.27;8.30;;;11.70;62.20;;;;;;5076460;28;20459;-66
2021/05/08 06:39:58;;;;;;;10.07;7.80;;;11.80;61.70;;;;;;5076437;28;20440;-66
2021/05/08 06:42:24;;;;;;;10.03;8.60;;;11.90;61.40;;;;;;5076196;28;20487;-66
2021/05/08 06:44:51;;;;;;;9.07;7.60;;;12.00;60.80;;;;;;5076073;28;20953;-66
2021/05/08 06:47:18;;;;;;;9.27;7.67;;;12.10;60.50;;;;;;5076301;28;20502;-66
2021/05/08 06:49:45;;;;;;;8.63;7.73;;;12.20;60.00;;;;;;5076071;28;20467;-67
2021/05/08 06:52:11;;;;;;;8.93;7.70;;;12.40;59.60;;;;;;5076250;28;20467;-67
2021/05/08 06:54:38;;;;;;;9.57;7.70;;;12.60;59.50;;;;;;5076187;28;20448;-67
2021/05/08 06:57:05;;;;;;;11.47;8.87;;;12.90;59.00;;;;;;5076194;28;20456;-67
2021/05/08 06:59:31;;;;;;;8.07;7.30;;;13.00;58.70;;;;;;5075829;28;20950;-67
2021/05/08 07:01:57;;;;;;;9.10;6.90;;;13.20;58.10;;;;;;5075874;28;20484;-72
2021/05/08 07:04:25;;;;;;;6.23;5.60;;;13.30;57.20;;;;;;5076133;28;20429;-67
2021/05/08 07:06:51;;;;;;;7.80;5.90;;;13.40;56.40;;;;;;5076019;28;20437;-66
2021/05/08 07:09:17;;;;;;;8.33;6.47;;;13.40;55.60;;;;;;5076043;28;20784;-67
2021/05/08 07:11:44;;;;;;;7.20;6.50;;;13.40;55.00;;;;;;5075854;28;20460;-67
2021/05/08 07:14:10;;;;;;;8.00;6.67;;;13.20;54.80;;;;;;5075853;28;20483;-67
2021/05/08 07:16:36;;;;;;;9.77;6.50;;;13.10;54.50;;;;;;5075539;28;20440;-67
2021/05/08 07:19:03;;;;;;;7.10;6.50;;;13.10;55.30;;;;;;5075813;28;20498;-67
2021/05/08 07:21:30;;;;;;;9.23;5.90;;;13.00;55.30;;;;;;5074911;28;20538;-67
2021/05/08 07:23:56;;;;;;;6.53;4.97;;;13.00;54.80;;;;;;5075490;28;20911;-67
2021/05/08 07:26:22;;;;;;;5.73;5.20;;;12.90;54.40;;;;;;5075303;28;20934;-67
2021/05/08 07:28:49;;;;;;;7.13;5.13;;;13.00;54.30;;;;;;5075554;28;20476;-67
2021/05/08 07:31:15;;;;;;;6.43;5.40;;;13.10;53.80;;;;;;5075419;28;20449;-67
2021/05/08 07:33:41;;;;;;;9.53;6.40;;;13.20;53.90;;;;;;5075518;28;20433;-67
2021/05/08 07:36:07;;;;;;;6.57;4.70;;;13.40;54.60;;;;;;5075447;28;20452;-67
2021/05/08 07:38:34;;;;;;;7.00;5.10;;;13.50;53.40;;;;;;5075487;28;20478;-67
2021/05/08 07:41:01;;;;;;;6.13;5.00;;;13.50;52.40;;;;;;5075264;28;20503;-67
2021/05/08 07:43:27;;;;;;;4.47;4.07;;;13.50;51.20;;;;;;5075317;28;20446;-68
2021/05/08 07:45:54;;;;;;;4.30;3.90;;;13.60;51.70;;;;;;5075244;28;20532;-67
2021/05/08 07:48:20;;;;;;;4.70;4.20;;;13.60;51.20;;;;;;5075303;28;20486;-67
2021/05/08 07:50:46;;;;;;;7.30;4.67;;;13.60;51.00;;;;;;5075042;28;20472;-67
2021/05/08 07:53:13;;;;;;;6.30;4.40;;;13.80;51.30;;;;;;5074826;28;20463;-68
2021/05/08 07:55:40;;;;;;;5.67;3.73;;;14.00;51.20;;;;;;5074745;28;20957;-67
2021/05/08 07:58:07;;;;;;;5.30;4.80;;;14.20;51.00;;;;;;5075286;28;20441;-67
2021/05/08 08:00:33;;;;;;;8.70;4.50;;;14.40;50.00;;;;;;5074847;28;20468;-67
2021/05/08 08:03:00;;;;;;;4.73;4.27;;;14.40;49.60;;;;;;5074948;28;20452;-68
2021/05/08 08:05:26;;;;;;;5.27;4.10;;;14.60;50.20;;;;;;5075430;28;20451;-67
2021/05/08 08:07:52;;;;;;;4.40;4.00;;;14.60;49.30;;;;;;5074620;28;20502;-67
2021/05/08 08:10:19;;;;;;;4.90;4.30;;;14.60;49.50;;;;;;5074712;28;20445;-67
2021/05/08 08:12:46;;;;;;;6.80;4.10;;;14.80;50.00;;;;;;5074384;28;20831;-68
2021/05/08 08:15:13;;;;;;;6.17;4.20;;;14.70;49.30;;;;;;5074752;28;20484;-67
2021/05/08 08:17:39;;;;;;;4.13;3.77;;;14.50;49.30;;;;;;5074643;28;20440;-67
2021/05/08 08:20:08;;;;;;;5.43;3.90;;;14.60;50.70;;;;;;5074552;28;20455;-67
2021/05/08 08:22:34;;;;;;;6.37;4.00;;;14.60;49.50;;;;;;5074336;28;20538;-67
2021/05/08 08:25:01;;;;;;;6.73;3.90;;;14.60;49.70;;;;;;5074464;28;20441;-67
2021/05/08 08:27:27;;;;;;;6.00;4.80;;;14.60;49.80;;;;;;5074657;28;20441;-68
2021/05/08 08:29:54;;;;;;;7.47;5.17;;;14.80;50.50;;;;;;5075149;28;20445;-68
2021/05/08 08:32:20;;;;;;;5.70;4.40;;;14.90;49.20;;;;;;5073566;28;20552;-68
2021/05/08 08:34:47;;;;;;;6.50;4.23;;;15.00;48.70;;;;;;5073783;28;20907;-67
2021/05/08 08:37:13;;;;;;;4.23;3.90;;;15.00;48.60;;;;;;5074155;28;20445;-71
2021/05/08 08:39:39;;;;;;;6.17;4.47;;;15.30;48.10;;;;;;5073934;28;20942;-68
2021/05/08 08:42:07;;;;;;;4.73;3.70;;;15.20;47.30;;;;;;5074094;28;20491;-70
2021/05/08 08:44:34;;;;;;;5.90;4.53;;;15.20;47.30;;;;;;5073818;28;20508;-68
2021/05/08 08:47:02;;;;;;;7.27;4.30;;;15.20;47.90;;;;;;5074044;28;20445;-68
2021/05/08 08:49:29;;;;;;;6.63;3.80;;;15.30;48.20;;;;;;5074055;28;20440;-68
2021/05/08 08:51:55;;;;;;;6.20;4.13;;;15.40;47.50;;;;;;5073504;28;20853;-68
2021/05/08 08:54:22;;;;;;;4.93;4.03;;;15.40;47.00;;;;;;5073698;28;20429;-68
2021/05/08 08:56:51;;;;;;;4.30;3.90;;;15.40;47.10;;;;;;5073398;28;20463;-68
2021/05/08 08:59:26;;;;;;;7.50;4.27;;;15.50;47.60;;;;;;5073789;28;20441;-68
2021/05/08 09:01:52;;;;;;;5.40;3.37;;;15.50;45.70;;;;;;5073739;28;20498;-68
2021/05/08 09:04:21;;;;;;;6.83;4.27;;;15.50;46.00;;;;;;5073893;28;20444;-68
2021/05/08 09:06:49;;;;;;;5.10;3.73;;;15.70;45.10;;;;;;5073899;28;20446;-68
2021/05/08 09:09:17;;;;;;;4.83;3.40;;;15.80;45.00;;;;;;5073803;28;20444;-68
2021/05/08 09:11:47;;;;;;;4.50;3.50;;;15.90;44.90;;;;;;5073653;28;20465;-68
2021/05/08 09:14:20;;;;;;;5.63;3.73;;;16.20;45.00;;;;;;5073364;28;20449;-68
2021/05/08 09:17:13;;;;;;;4.77;3.47;;;16.30;43.50;;;;;;5073660;28;20467;-68
2021/05/08 09:19:42;;;;;;;5.03;3.50;;;16.50;42.70;;;;;;5073659;28;20433;-68
2021/05/08 09:22:29;;;;;;;4.30;2.93;;;16.70;40.40;;;;;;5073493;28;20484;-68
2021/05/08 09:24:57;;;;;;;4.93;3.37;;;16.80;41.20;;;;;;5073594;28;20819;-68
2021/05/08 09:27:40;;;;;;;5.77;3.30;;;17.00;41.00;;;;;;5073220;28;21076;-70
2021/05/08 09:30:10;;;;;;;4.50;3.57;;;17.20;40.00;;;;;;5074782;28;20802;-68
2021/05/08 09:32:38;;;;;;;3.90;2.90;;;17.40;40.60;;;;;;5073227;28;20793;-68
2021/05/08 09:35:08;;;;;;;4.10;3.07;;;17.60;39.20;;;;;;5074320;28;20456;-68
2021/05/08 09:37:35;;;;;;;6.47;2.87;;;17.70;38.60;;;;;;5073632;28;20462;-68
2021/05/08 09:40:18;;;;;;;6.03;3.43;;;17.70;37.60;;;;;;5073786;28;20441;-73
2021/05/08 09:42:46;;;;;;;5.00;2.57;;;17.90;38.60;;;;;;5071590;28;20550;-68
2021/05/08 09:45:14;;;;;;;4.77;2.90;;;18.10;39.00;;;;;;5076077;28;20445;-68
2021/05/08 09:47:40;;;;;;;3.43;2.97;;;18.30;37.30;;;;;;5077525;28;20538;-68
2021/05/08 09:50:08;;;;;;;6.00;2.67;;;18.20;37.80;;;;;;5077558;28;20827;-68
2021/05/08 09:52:45;;;;;;;4.37;2.80;;;18.10;37.30;;;;;;5077622;28;20464;-69
2021/05/08 09:55:12;;;;;;;4.43;2.23;;;18.20;37.20;;;;;;5077275;28;20911;-68
2021/05/08 09:57:38;;;;;;;4.30;2.70;;;18.20;36.30;;;;;;5077399;28;20451;-69
2021/05/08 10:00:26;;;;;;;3.80;2.80;;;18.20;37.60;;;;;;5077377;28;20799;-69
2021/05/08 10:03:01;;;;;;;4.10;2.90;;;18.10;36.20;;;;;;5076809;28;20472;-68
2021/05/08 10:06:12;;;;;;;3.73;2.90;;;18.20;36.70;;;;;;5077159;28;20425;-68
2021/05/08 10:08:39;;;;;;;3.20;2.90;;;18.30;37.00;;;;;;5076828;28;20470;-67
2021/05/08 10:11:05;;;;;;;5.67;3.10;;;18.40;35.90;;;;;;5077056;28;20468;-67
2021/05/08 10:13:32;;;;;;;4.67;2.97;;;18.40;35.50;;;;;;5077019;28;20455;-67
2021/05/08 10:15:59;;;;;;;4.60;2.37;;;18.30;36.60;;;;;;5076997;28;20440;-67
2021/05/08 10:18:29;;;;;;;4.87;2.60;;;18.30;35.60;;;;;;5076982;28;20429;-67
2021/05/08 10:20:56;;;;;;;4.27;2.83;;;18.20;35.60;;;;;;5076738;28;20475;-67
2021/05/08 10:23:29;;;;;;;5.30;2.50;;;18.20;36.20;;;;;;5076539;28;20445;-67
2021/05/08 10:25:57;;;;;;;4.33;3.03;;;18.40;36.00;;;;;;5077121;28;20447;-67
2021/05/08 10:28:24;;;;;;;2.90;2.60;;;18.60;36.00;;;;;;5076998;28;20444;-67
2021/05/08 10:30:50;;;;;;;2.80;2.43;;;18.80;35.70;;;;;;5076609;28;20496;-67
2021/05/08 10:33:20;;;;;;;3.63;2.30;;;18.80;35.90;;;;;;5076361;28;20793;-67
2021/05/08 10:35:49;;;;;;;3.43;2.17;;;19.00;35.80;;;;;;5076978;28;20433;-67
2021/05/08 10:38:19;;;;;;;2.40;1.97;;;19.10;35.60;;;;;;5076635;28;20452;-67
2021/05/08 10:40:59;;;;;;;6.90;2.50;;;19.30;36.10;;;;;;5076714;28;20468;-67
2021/05/08 10:43:47;;;;;;;2.80;2.43;;;19.40;34.80;;;;;;5076437;28;20451;-67
2021/05/08 10:46:14;;;;;;;3.10;2.40;;;19.40;33.60;;;;;;5076394;28;20490;-68
2021/05/08 10:49:26;;;;;;;2.30;2.03;;;19.30;35.00;;;;;;5076458;28;20448;-69
2021/05/08 10:51:59;;;;;;;2.63;2.10;;;19.40;35.80;;;;;;5075914;28;20479;-69
2021/05/08 10:54:52;;;;;;;2.70;2.23;;;19.20;34.80;;;;;;5076268;28;20853;-69
2021/05/08 10:57:23;;;;;;;3.20;2.37;;;19.10;35.30;;;;;;5074883;28;20455;-69
2021/05/08 11:00:30;;;;;;;2.87;2.50;;;18.90;35.20;;;;;;5076017;28;20433;-69
2021/05/08 11:03:06;;;;;;;3.40;2.00;;;18.80;35.40;;;;;;5076081;28;20564;-69
2021/05/08 11:05:35;;;;;;;3.30;2.20;;;18.60;35.00;;;;;;5076130;28;20441;-69
2021/05/08 11:08:40;;;;;;;3.83;1.97;;;18.60;36.30;;;;;;5076035;28;20454;-69
2021/05/08 11:11:07;;;;;;;3.90;1.77;;;18.70;36.10;;;;;;5075921;28;20460;-69
2021/05/08 11:13:47;;;;;;;2.63;1.77;;;18.80;36.60;;;;;;5075734;28;20429;-69
2021/05/08 11:16:14;;;;;;;4.00;1.50;;;19.10;36.20;;;;;;5075797;28;20429;-69
2021/05/08 11:18:42;;;;;;;2.23;1.40;;;19.10;35.90;;;;;;5075814;28;20589;-69
2021/05/08 11:21:43;;;;;;;2.00;1.53;;;19.30;36.00;;;;;;5075495;28;21036;-69
2021/05/08 11:24:12;;;;;;;3.30;1.17;;;18.90;35.20;;;;;;5075737;28;20432;-69
2021/05/08 11:26:43;;;;;;;2.13;1.20;;;18.70;36.60;;;;;;5075701;28;20537;-69
2021/05/08 11:29:19;;;;;;;2.40;1.30;;;18.80;37.10;;;;;;5075681;28;20437;-69
2021/05/08 11:31:51;;;;;;;1.40;1.23;;;18.80;37.80;;;;;;5075015;28;20513;-69
2021/05/08 11:34:23;;;;;;;4.60;1.40;;;18.60;37.20;;;;;;5075617;28;20465;-69
2021/05/08 11:36:55;;;;;;;2.17;1.20;;;18.40;37.90;;;;;;5075539;28;20457;-70
2021/05/08 11:39:23;;;;;;;1.53;1.00;;;18.20;38.90;;;;;;5075564;28;20430;-69
2021/05/08 11:41:52;;;;;;;1.43;1.10;;;18.00;38.90;;;;;;5075274;28;20485;-68
2021/05/08 11:44:28;;;;;;;2.17;0.83;;;17.80;41.20;;;;;;5075452;28;20558;-69
2021/05/08 11:47:00;;;;;;;4.50;1.20;;;17.70;42.20;;;;;;5075384;28;20433;-68
2021/05/08 11:49:28;;;;;;;1.73;1.20;;;17.70;43.10;;;;;;5075294;28;20456;-68
2021/05/08 11:51:55;;;;;;;1.77;1.27;;;17.60;43.40;;;;;;5074876;28;20473;-69
2021/05/08 11:54:21;;;;;;;2.30;1.23;;;17.60;44.60;;;;;;5075221;28;20493;-68
2021/05/08 11:56:47;;;;;;;2.10;1.37;;;17.50;44.30;;;;;;5075206;28;20494;-68
2021/05/08 11:59:14;;;;;;;2.13;1.67;;;17.30;44.30;;;;;;5075115;28;20468;-66
2021/05/08 12:01:41;;;;;;;1.43;1.33;;;17.30;45.30;;;;;;5074696;28;20934;-66
2021/05/08 12:04:18;;;;;;;2.53;1.23;;;17.20;45.40;;;;;;5074890;28;20454;-66
2021/05/08 12:06:44;;;;;;;2.07;1.30;;;17.20;45.70;;;;;;5074705;28;20482;-65
2021/05/08 12:09:11;;;;;;;2.10;1.73;;;17.30;46.70;;;;;;5074576;28;20842;-65
2021/05/08 12:11:38;;;;;;;1.50;1.30;;;17.30;46.60;;;;;;5074433;28;20457;-66
2021/05/08 12:14:12;;;;;;;1.27;1.20;;;17.50;46.50;;;;;;5074761;28;20436;-65
2021/05/08 12:16:38;;;;;;;1.43;1.33;;;17.50;45.20;;;;;;5074655;28;20443;-65
2021/05/08 12:19:06;;;;;;;1.80;1.53;;;17.50;45.10;;;;;;5074618;28;20456;-66
2021/05/08 12:21:33;;;;;;;2.20;1.60;;;17.50;44.90;;;;;;5074451;28;20537;-65
2021/05/08 12:23:59;;;;;;;1.10;1.10;;;17.40;45.20;;;;;;5074278;28;20930;-65
2021/05/08 12:26:25;;;;;;;3.10;1.50;;;17.40;44.50;;;;;;5074751;28;20449;-65
2021/05/08 12:28:57;;;;;;;1.70;1.23;;;17.30;45.80;;;;;;5074445;28;20449;-65
2021/05/08 12:31:28;;;;;;;2.33;1.73;;;17.30;45.80;;;;;;5074351;28;20467;-65
2021/05/08 12:33:57;;;;;;;1.67;1.53;;;17.20;45.50;;;;;;5074399;28;20433;-65
2021/05/08 12:36:25;;;;;;;1.50;1.27;;;17.10;45.10;;;;;;5074373;28;20903;-65
2021/05/08 12:38:53;;;;;;;2.57;1.40;;;17.00;44.50;;;;;;5074265;28;20437;-65
2021/05/08 12:41:35;;;;;;;1.07;0.97;;;16.90;45.90;;;;;;5074131;28;20484;-65
2021/05/08 12:44:06;;;;;;;2.70;1.37;;;16.80;46.30;;;;;;5074318;28;20437;-65
2021/05/08 12:47:04;;;;;;;2.73;1.40;;;16.80;47.20;;;;;;5074765;28;20779;-65
2021/05/08 12:49:32;;;;;;;2.63;2.00;;;16.70;47.00;;;;;;5012249;28;20458;-65
2021/05/08 12:52:23;;;;;;;2.20;2.00;;;16.50;47.20;;;;;;5061216;28;20542;-66